Rockland, Pennsylvania
Current Conditions -  °F | °C
As of 2:54 AM on Thursday 18 Dec 2014 (Local Time) from KRDG Reporting Station
Clear Clear  
Wind Chill: 24°   Ceiling: Unl
Heat Index: 34°   Visibility: 10mi
Dew Point: 19°   Wind: 16mph
Humidity: 54%   Direction: 290°WNW
Pressure: 30.01"   Gusts: NA
Location:  40.4504°N, 75.8012°W
Report Text: KRDG 180754Z 29014KT 10SM CLR 01/M07 A3001 RMK AO2 PK WND 30026/0717 SLP169 T00111072
Loading
Personal Weather Stations






























Interactive Weather Map New forecast layout! Learn more

10-Day Weather Forecast

Advertisements
Track Severe Weather on mobile